sensor_id;sensor_type;location;lat;lon;timestamp;temperature;humidity
25914;DHT22;13718;50.922;5.346;2023-09-19T00:01:42;16.50;99.90
25914;DHT22;13718;50.922;5.346;2023-09-19T00:04:11;16.60;99.90
25914;DHT22;13718;50.922;5.346;2023-09-19T00:06:38;16.60;99.90
25914;DHT22;13718;50.922;5.346;2023-09-19T00:09:04;16.60;99.90
25914;DHT22;13718;50.922;5.346;2023-09-19T00:11:30;16.60;99.90
25914;DHT22;13718;50.922;5.346;2023-09-19T00:13:56;16.50;99.90
25914;DHT22;13718;50.922;5.346;2023-09-19T00:16:25;16.60;99.90
25914;DHT22;13718;50.922;5.346;2023-09-19T00:18:51;16.50;99.90
25914;DHT22;13718;50.922;5.346;2023-09-19T00:21:16;16.50;99.90
25914;DHT22;13718;50.922;5.346;2023-09-19T00:23:42;16.60;99.90
25914;DHT22;13718;50.922;5.346;2023-09-19T00:26:08;16.70;99.90
25914;DHT22;13718;50.922;5.346;2023-09-19T00:28:33;16.60;99.90
25914;DHT22;13718;50.922;5.346;2023-09-19T00:30:59;16.50;99.90
25914;DHT22;13718;50.922;5.346;2023-09-19T00:33:27;16.50;99.90
25914;DHT22;13718;50.922;5.346;2023-09-19T00:35:56;16.50;99.90
25914;DHT22;13718;50.922;5.346;2023-09-19T00:38:22;16.70;99.90
25914;DHT22;13718;50.922;5.346;2023-09-19T00:40:52;16.60;99.90
25914;DHT22;13718;50.922;5.346;2023-09-19T00:43:18;16.50;99.90
25914;DHT22;13718;50.922;5.346;2023-09-19T00:45:46;16.50;99.90
25914;DHT22;13718;50.922;5.346;2023-09-19T00:48:14;16.50;99.90
25914;DHT22;13718;50.922;5.346;2023-09-19T00:50:41;16.50;99.90
25914;DHT22;13718;50.922;5.346;2023-09-19T00:53:08;16.50;99.90
25914;DHT22;13718;50.922;5.346;2023-09-19T00:55:38;16.50;99.90
25914;DHT22;13718;50.922;5.346;2023-09-19T00:58:04;16.60;99.90
25914;DHT22;13718;50.922;5.346;2023-09-19T01:00:33;16.50;99.90
25914;DHT22;13718;50.922;5.346;2023-09-19T01:03:00;16.50;99.90
25914;DHT22;13718;50.922;5.346;2023-09-19T01:05:27;16.50;99.90
25914;DHT22;13718;50.922;5.346;2023-09-19T01:07:52;16.50;99.90
25914;DHT22;13718;50.922;5.346;2023-09-19T01:10:19;16.60;99.90
25914;DHT22;13718;50.922;5.346;2023-09-19T01:21:28;16.40;99.90
25914;DHT22;13718;50.922;5.346;2023-09-19T01:24:05;16.50;99.90
25914;DHT22;13718;50.922;5.346;2023-09-19T01:26:58;16.50;99.90
25914;DHT22;13718;50.922;5.346;2023-09-19T01:29:49;16.50;99.90
25914;DHT22;13718;50.922;5.346;2023-09-19T01:32:19;16.40;99.90
25914;DHT22;13718;50.922;5.346;2023-09-19T01:34:51;16.50;99.90
25914;DHT22;13718;50.922;5.346;2023-09-19T01:37:19;16.50;99.90
25914;DHT22;13718;50.922;5.346;2023-09-19T01:39:50;16.60;99.90
25914;DHT22;13718;50.922;5.346;2023-09-19T01:42:41;16.60;99.90
25914;DHT22;13718;50.922;5.346;2023-09-19T01:45:20;16.50;99.90
25914;DHT22;13718;50.922;5.346;2023-09-19T01:47:52;16.60;99.90
25914;DHT22;13718;50.922;5.346;2023-09-19T01:50:25;16.50;99.90
25914;DHT22;13718;50.922;5.346;2023-09-19T01:53:05;16.50;99.90
25914;DHT22;13718;50.922;5.346;2023-09-19T01:55:37;16.30;99.90
25914;DHT22;13718;50.922;5.346;2023-09-19T01:58:24;16.30;99.90
25914;DHT22;13718;50.922;5.346;2023-09-19T02:00:52;16.30;99.90
25914;DHT22;13718;50.922;5.346;2023-09-19T02:03:18;16.20;99.90
25914;DHT22;13718;50.922;5.346;2023-09-19T02:05:52;16.10;99.90
25914;DHT22;13718;50.922;5.346;2023-09-19T02:08:19;16.10;99.90
25914;DHT22;13718;50.922;5.346;2023-09-19T02:10:46;16.10;99.90
25914;DHT22;13718;50.922;5.346;2023-09-19T02:13:21;16.00;99.90
25914;DHT22;13718;50.922;5.346;2023-09-19T02:15:49;16.10;99.90
25914;DHT22;13718;50.922;5.346;2023-09-19T02:18:15;16.10;99.90
25914;DHT22;13718;50.922;5.346;2023-09-19T02:20:41;16.20;99.90
25914;DHT22;13718;50.922;5.346;2023-09-19T02:23:07;16.30;99.90
25914;DHT22;13718;50.922;5.346;2023-09-19T02:25:33;16.30;99.90
25914;DHT22;13718;50.922;5.346;2023-09-19T02:27:59;16.40;99.90
25914;DHT22;13718;50.922;5.346;2023-09-19T02:30:26;16.20;99.90
25914;DHT22;13718;50.922;5.346;2023-09-19T02:32:52;16.20;99.90
25914;DHT22;13718;50.922;5.346;2023-09-19T02:35:17;16.20;99.90
25914;DHT22;13718;50.922;5.346;2023-09-19T02:37:47;16.20;99.90
25914;DHT22;13718;50.922;5.346;2023-09-19T02:40:13;16.20;99.90
25914;DHT22;13718;50.922;5.346;2023-09-19T02:42:46;16.20;99.90
25914;DHT22;13718;50.922;5.346;2023-09-19T02:45:12;16.30;99.90
25914;DHT22;13718;50.922;5.346;2023-09-19T02:47:40;16.20;99.90
25914;DHT22;13718;50.922;5.346;2023-09-19T02:50:06;16.10;99.90
25914;DHT22;13718;50.922;5.346;2023-09-19T02:52:31;16.30;99.90
25914;DHT22;13718;50.922;5.346;2023-09-19T02:54:57;16.20;99.90
25914;DHT22;13718;50.922;5.346;2023-09-19T02:57:22;16.20;99.90
25914;DHT22;13718;50.922;5.346;2023-09-19T02:59:49;16.40;99.90
25914;DHT22;13718;50.922;5.346;2023-09-19T03:02:15;16.30;99.90
25914;DHT22;13718;50.922;5.346;2023-09-19T03:04:41;16.20;99.90
25914;DHT22;13718;50.922;5.346;2023-09-19T03:07:07;16.20;99.90
25914;DHT22;13718;50.922;5.346;2023-09-19T03:09:32;16.10;99.90
25914;DHT22;13718;50.922;5.346;2023-09-19T03:11:58;16.20;99.90
25914;DHT22;13718;50.922;5.346;2023-09-19T03:14:24;16.10;99.90
25914;DHT22;13718;50.922;5.346;2023-09-19T03:16:50;16.20;99.90
25914;DHT22;13718;50.922;5.346;2023-09-19T03:19:17;16.20;99.90
25914;DHT22;13718;50.922;5.346;2023-09-19T03:21:46;16.00;99.90
25914;DHT22;13718;50.922;5.346;2023-09-19T03:24:12;16.20;99.90
25914;DHT22;13718;50.922;5.346;2023-09-19T03:26:38;16.20;99.90
25914;DHT22;13718;50.922;5.346;2023-09-19T03:29:04;16.00;99.90
25914;DHT22;13718;50.922;5.346;2023-09-19T03:31:33;15.90;99.90
25914;DHT22;13718;50.922;5.346;2023-09-19T03:33:59;15.90;99.90
25914;DHT22;13718;50.922;5.346;2023-09-19T03:36:24;16.00;99.90
25914;DHT22;13718;50.922;5.346;2023-09-19T03:38:50;15.90;99.90
25914;DHT22;13718;50.922;5.346;2023-09-19T03:41:15;15.90;99.90
25914;DHT22;13718;50.922;5.346;2023-09-19T03:43:42;16.00;99.90
25914;DHT22;13718;50.922;5.346;2023-09-19T03:46:08;15.90;99.90
25914;DHT22;13718;50.922;5.346;2023-09-19T03:48:33;16.10;99.90
25914;DHT22;13718;50.922;5.346;2023-09-19T03:50:59;16.10;99.90
25914;DHT22;13718;50.922;5.346;2023-09-19T03:53:24;16.10;99.90
25914;DHT22;13718;50.922;5.346;2023-09-19T03:55:50;16.30;99.90
25914;DHT22;13718;50.922;5.346;2023-09-19T03:58:15;16.40;99.90
25914;DHT22;13718;50.922;5.346;2023-09-19T04:00:41;16.40;99.90
25914;DHT22;13718;50.922;5.346;2023-09-19T04:03:07;16.30;99.90
25914;DHT22;13718;50.922;5.346;2023-09-19T04:05:33;16.30;99.90
25914;DHT22;13718;50.922;5.346;2023-09-19T04:07:59;16.20;99.90
25914;DHT22;13718;50.922;5.346;2023-09-19T04:10:24;16.30;99.90
25914;DHT22;13718;50.922;5.346;2023-09-19T04:12:51;16.30;99.90
25914;DHT22;13718;50.922;5.346;2023-09-19T04:15:18;16.30;99.90
25914;DHT22;13718;50.922;5.346;2023-09-19T04:17:44;16.30;99.90
25914;DHT22;13718;50.922;5.346;2023-09-19T04:20:10;16.20;99.90
25914;DHT22;13718;50.922;5.346;2023-09-19T04:22:38;16.20;99.90
25914;DHT22;13718;50.922;5.346;2023-09-19T04:25:04;16.10;99.90
25914;DHT22;13718;50.922;5.346;2023-09-19T04:27:32;16.20;99.90
25914;DHT22;13718;50.922;5.346;2023-09-19T04:29:58;16.20;99.90
25914;DHT22;13718;50.922;5.346;2023-09-19T04:32:27;16.30;99.90
25914;DHT22;13718;50.922;5.346;2023-09-19T04:34:53;16.20;99.90
25914;DHT22;13718;50.922;5.346;2023-09-19T04:37:19;16.20;99.90
25914;DHT22;13718;50.922;5.346;2023-09-19T04:39:44;16.40;99.90
25914;DHT22;13718;50.922;5.346;2023-09-19T04:42:13;16.50;99.90
25914;DHT22;13718;50.922;5.346;2023-09-19T04:44:40;16.40;99.90
25914;DHT22;13718;50.922;5.346;2023-09-19T04:47:06;16.50;99.90
25914;DHT22;13718;50.922;5.346;2023-09-19T04:49:31;16.40;99.90
25914;DHT22;13718;50.922;5.346;2023-09-19T04:51:57;16.40;99.90
25914;DHT22;13718;50.922;5.346;2023-09-19T04:54:22;16.30;99.90
25914;DHT22;13718;50.922;5.346;2023-09-19T04:56:48;16.30;99.90
25914;DHT22;13718;50.922;5.346;2023-09-19T04:59:14;16.20;99.90
25914;DHT22;13718;50.922;5.346;2023-09-19T05:01:40;16.20;99.90
25914;DHT22;13718;50.922;5.346;2023-09-19T05:04:06;16.20;99.90
25914;DHT22;13718;50.922;5.346;2023-09-19T05:06:31;16.20;99.90
25914;DHT22;13718;50.922;5.346;2023-09-19T05:09:00;16.20;99.90
25914;DHT22;13718;50.922;5.346;2023-09-19T05:11:26;16.20;99.90
25914;DHT22;13718;50.922;5.346;2023-09-19T05:13:52;16.00;99.90
25914;DHT22;13718;50.922;5.346;2023-09-19T05:16:18;16.00;99.90
25914;DHT22;13718;50.922;5.346;2023-09-19T05:18:44;16.00;99.90
25914;DHT22;13718;50.922;5.346;2023-09-19T05:21:09;16.20;99.90
25914;DHT22;13718;50.922;5.346;2023-09-19T05:23:35;16.10;99.90
25914;DHT22;13718;50.922;5.346;2023-09-19T05:26:00;16.10;99.90
25914;DHT22;13718;50.922;5.346;2023-09-19T05:28:27;16.10;99.90
25914;DHT22;13718;50.922;5.346;2023-09-19T05:30:53;16.20;99.90
25914;DHT22;13718;50.922;5.346;2023-09-19T05:33:19;16.20;99.90
25914;DHT22;13718;50.922;5.346;2023-09-19T05:35:45;15.90;99.90
25914;DHT22;13718;50.922;5.346;2023-09-19T05:38:13;15.90;99.90
25914;DHT22;13718;50.922;5.346;2023-09-19T05:40:42;15.80;99.90
25914;DHT22;13718;50.922;5.346;2023-09-19T05:43:08;15.80;99.90
25914;DHT22;13718;50.922;5.346;2023-09-19T05:45:34;15.90;99.90
25914;DHT22;13718;50.922;5.346;2023-09-19T05:48:12;16.00;99.90
25914;DHT22;13718;50.922;5.346;2023-09-19T05:50:38;16.00;99.90
25914;DHT22;13718;50.922;5.346;2023-09-19T05:53:04;16.00;99.90
25914;DHT22;13718;50.922;5.346;2023-09-19T05:55:30;16.10;99.90
25914;DHT22;13718;50.922;5.346;2023-09-19T05:57:56;16.20;99.90
25914;DHT22;13718;50.922;5.346;2023-09-19T06:00:22;16.10;99.90
25914;DHT22;13718;50.922;5.346;2023-09-19T06:02:52;16.10;99.90
25914;DHT22;13718;50.922;5.346;2023-09-19T06:05:18;16.30;99.90
25914;DHT22;13718;50.922;5.346;2023-09-19T06:07:43;16.30;99.90
25914;DHT22;13718;50.922;5.346;2023-09-19T06:10:09;16.30;99.90
25914;DHT22;13718;50.922;5.346;2023-09-19T06:12:44;16.30;99.90
25914;DHT22;13718;50.922;5.346;2023-09-19T06:15:11;16.30;99.90
25914;DHT22;13718;50.922;5.346;2023-09-19T06:17:49;16.30;99.90
25914;DHT22;13718;50.922;5.346;2023-09-19T06:20:15;16.40;99.90
25914;DHT22;13718;50.922;5.346;2023-09-19T06:22:42;16.50;99.90
25914;DHT22;13718;50.922;5.346;2023-09-19T06:25:12;16.60;99.90
25914;DHT22;13718;50.922;5.346;2023-09-19T06:27:41;16.70;99.90
25914;DHT22;13718;50.922;5.346;2023-09-19T06:30:10;16.70;99.90
25914;DHT22;13718;50.922;5.346;2023-09-19T06:32:45;16.60;99.90
25914;DHT22;13718;50.922;5.346;2023-09-19T06:35:11;16.60;99.90
25914;DHT22;13718;50.922;5.346;2023-09-19T06:37:38;16.60;99.90
25914;DHT22;13718;50.922;5.346;2023-09-19T06:40:14;16.70;99.90
25914;DHT22;13718;50.922;5.346;2023-09-19T06:43:06;16.70;99.90
25914;DHT22;13718;50.922;5.346;2023-09-19T06:45:32;16.90;99.90
25914;DHT22;13718;50.922;5.346;2023-09-19T06:47:58;17.00;99.90
25914;DHT22;13718;50.922;5.346;2023-09-19T06:50:25;17.00;99.90
25914;DHT22;13718;50.922;5.346;2023-09-19T06:52:53;17.00;99.90
25914;DHT22;13718;50.922;5.346;2023-09-19T06:55:21;17.00;99.90
25914;DHT22;13718;50.922;5.346;2023-09-19T06:57:50;17.10;99.90
25914;DHT22;13718;50.922;5.346;2023-09-19T07:00:16;17.20;99.90
25914;DHT22;13718;50.922;5.346;2023-09-19T07:02:59;17.30;99.90
25914;DHT22;13718;50.922;5.346;2023-09-19T07:05:35;17.30;99.90
25914;DHT22;13718;50.922;5.346;2023-09-19T07:08:03;17.50;99.90
25914;DHT22;13718;50.922;5.346;2023-09-19T07:10:30;17.70;99.90
25914;DHT22;13718;50.922;5.346;2023-09-19T07:12:59;17.90;99.90
25914;DHT22;13718;50.922;5.346;2023-09-19T07:15:26;18.20;99.90
25914;DHT22;13718;50.922;5.346;2023-09-19T07:17:52;18.30;99.90
25914;DHT22;13718;50.922;5.346;2023-09-19T07:20:19;18.40;99.90
25914;DHT22;13718;50.922;5.346;2023-09-19T07:22:45;18.30;99.90
25914;DHT22;13718;50.922;5.346;2023-09-19T07:25:11;18.30;99.90
25914;DHT22;13718;50.922;5.346;2023-09-19T07:27:40;18.50;99.90
25914;DHT22;13718;50.922;5.346;2023-09-19T07:30:06;18.60;99.90
25914;DHT22;13718;50.922;5.346;2023-09-19T07:32:31;18.70;99.90
25914;DHT22;13718;50.922;5.346;2023-09-19T07:34:57;18.80;99.90
25914;DHT22;13718;50.922;5.346;2023-09-19T07:37:23;18.80;99.90
25914;DHT22;13718;50.922;5.346;2023-09-19T07:39:51;18.80;99.90
25914;DHT22;13718;50.922;5.346;2023-09-19T07:42:16;18.80;99.90
25914;DHT22;13718;50.922;5.346;2023-09-19T07:44:43;18.90;99.90
25914;DHT22;13718;50.922;5.346;2023-09-19T07:47:14;18.90;99.90
25914;DHT22;13718;50.922;5.346;2023-09-19T07:49:39;19.00;99.90
25914;DHT22;13718;50.922;5.346;2023-09-19T07:52:07;19.00;99.90
25914;DHT22;13718;50.922;5.346;2023-09-19T07:54:33;19.10;99.90
25914;DHT22;13718;50.922;5.346;2023-09-19T07:57:01;19.20;99.90
25914;DHT22;13718;50.922;5.346;2023-09-19T07:59:27;19.10;99.90
25914;DHT22;13718;50.922;5.346;2023-09-19T08:01:53;19.10;99.90
25914;DHT22;13718;50.922;5.346;2023-09-19T08:04:19;19.20;99.90
25914;DHT22;13718;50.922;5.346;2023-09-19T08:06:44;19.40;99.90
25914;DHT22;13718;50.922;5.346;2023-09-19T08:09:10;19.80;99.90
25914;DHT22;13718;50.922;5.346;2023-09-19T08:11:37;20.10;99.90
25914;DHT22;13718;50.922;5.346;2023-09-19T08:14:04;20.40;99.90
25914;DHT22;13718;50.922;5.346;2023-09-19T08:16:31;21.00;99.90
25914;DHT22;13718;50.922;5.346;2023-09-19T08:18:56;21.40;99.90
25914;DHT22;13718;50.922;5.346;2023-09-19T08:21:22;21.90;99.90
25914;DHT22;13718;50.922;5.346;2023-09-19T08:23:49;21.70;99.90
25914;DHT22;13718;50.922;5.346;2023-09-19T08:26:15;22.00;99.90
25914;DHT22;13718;50.922;5.346;2023-09-19T08:28:40;22.20;99.90
25914;DHT22;13718;50.922;5.346;2023-09-19T08:31:07;22.20;99.90
25914;DHT22;13718;50.922;5.346;2023-09-19T08:33:34;22.50;99.90
25914;DHT22;13718;50.922;5.346;2023-09-19T08:36:01;22.70;99.90
25914;DHT22;13718;50.922;5.346;2023-09-19T08:38:27;23.10;99.90
25914;DHT22;13718;50.922;5.346;2023-09-19T08:40:57;23.10;99.90
25914;DHT22;13718;50.922;5.346;2023-09-19T08:43:23;23.20;99.90
25914;DHT22;13718;50.922;5.346;2023-09-19T08:45:49;23.30;99.90
25914;DHT22;13718;50.922;5.346;2023-09-19T08:48:28;23.10;99.90
25914;DHT22;13718;50.922;5.346;2023-09-19T08:51:06;22.60;99.90
25914;DHT22;13718;50.922;5.346;2023-09-19T08:53:41;22.10;99.90
25914;DHT22;13718;50.922;5.346;2023-09-19T08:56:12;21.70;99.90
25914;DHT22;13718;50.922;5.346;2023-09-19T08:58:51;21.70;99.90
25914;DHT22;13718;50.922;5.346;2023-09-19T09:01:20;21.60;99.90
25914;DHT22;13718;50.922;5.346;2023-09-19T09:03:53;21.40;99.90
25914;DHT22;13718;50.922;5.346;2023-09-19T09:06:20;21.10;99.90
25914;DHT22;13718;50.922;5.346;2023-09-19T09:08:46;21.10;99.90
25914;DHT22;13718;50.922;5.346;2023-09-19T09:11:15;21.00;99.90
25914;DHT22;13718;50.922;5.346;2023-09-19T09:13:41;21.00;99.90
25914;DHT22;13718;50.922;5.346;2023-09-19T09:16:07;21.00;99.90
25914;DHT22;13718;50.922;5.346;2023-09-19T09:18:35;21.10;99.90
25914;DHT22;13718;50.922;5.346;2023-09-19T09:21:00;21.00;99.90
25914;DHT22;13718;50.922;5.346;2023-09-19T09:23:27;21.00;99.90
25914;DHT22;13718;50.922;5.346;2023-09-19T09:25:55;21.00;99.90
25914;DHT22;13718;50.922;5.346;2023-09-19T09:28:29;20.90;99.90
25914;DHT22;13718;50.922;5.346;2023-09-19T09:30:56;20.90;99.90
25914;DHT22;13718;50.922;5.346;2023-09-19T09:33:24;21.00;99.90
25914;DHT22;13718;50.922;5.346;2023-09-19T09:35:55;20.90;99.90
25914;DHT22;13718;50.922;5.346;2023-09-19T09:38:27;21.10;99.90
25914;DHT22;13718;50.922;5.346;2023-09-19T09:40:54;21.20;99.90
25914;DHT22;13718;50.922;5.346;2023-09-19T09:43:40;21.30;99.90
25914;DHT22;13718;50.922;5.346;2023-09-19T09:46:17;21.50;99.90
25914;DHT22;13718;50.922;5.346;2023-09-19T09:51:49;21.80;99.90
25914;DHT22;13718;50.922;5.346;2023-09-19T09:54:25;21.70;99.90
25914;DHT22;13718;50.922;5.346;2023-09-19T09:57:02;21.60;99.90
25914;DHT22;13718;50.922;5.346;2023-09-19T09:59:49;21.60;99.90
25914;DHT22;13718;50.922;5.346;2023-09-19T10:02:16;21.70;99.90
25914;DHT22;13718;50.922;5.346;2023-09-19T10:04:57;21.70;99.90
25914;DHT22;13718;50.922;5.346;2023-09-19T10:07:49;21.80;99.90
25914;DHT22;13718;50.922;5.346;2023-09-19T10:10:32;21.80;99.90
25914;DHT22;13718;50.922;5.346;2023-09-19T10:13:13;21.70;99.90
25914;DHT22;13718;50.922;5.346;2023-09-19T10:15:43;21.80;99.90
25914;DHT22;13718;50.922;5.346;2023-09-19T10:18:20;21.90;99.90
25914;DHT22;13718;50.922;5.346;2023-09-19T10:20:46;21.90;99.90
25914;DHT22;13718;50.922;5.346;2023-09-19T10:23:14;21.80;99.90
25914;DHT22;13718;50.922;5.346;2023-09-19T10:25:47;21.70;99.90
25914;DHT22;13718;50.922;5.346;2023-09-19T10:28:15;21.80;99.90
25914;DHT22;13718;50.922;5.346;2023-09-19T10:30:46;21.90;99.90
25914;DHT22;13718;50.922;5.346;2023-09-19T10:33:17;21.80;99.90
25914;DHT22;13718;50.922;5.346;2023-09-19T10:35:47;21.60;99.90
25914;DHT22;13718;50.922;5.346;2023-09-19T10:38:16;21.60;99.90
25914;DHT22;13718;50.922;5.346;2023-09-19T10:40:47;21.40;99.90
25914;DHT22;13718;50.922;5.346;2023-09-19T10:43:16;21.50;99.90
25914;DHT22;13718;50.922;5.346;2023-09-19T10:45:45;21.20;99.90
25914;DHT22;13718;50.922;5.346;2023-09-19T10:48:15;21.30;99.90
25914;DHT22;13718;50.922;5.346;2023-09-19T10:53:51;21.40;99.90
25914;DHT22;13718;50.922;5.346;2023-09-19T10:56:23;21.30;99.90
25914;DHT22;13718;50.922;5.346;2023-09-19T10:58:50;21.40;99.90
25914;DHT22;13718;50.922;5.346;2023-09-19T11:01:16;21.40;99.90
25914;DHT22;13718;50.922;5.346;2023-09-19T11:03:43;21.20;99.90
25914;DHT22;13718;50.922;5.346;2023-09-19T11:06:14;21.30;99.90
25914;DHT22;13718;50.922;5.346;2023-09-19T11:09:02;21.40;99.90
25914;DHT22;13718;50.922;5.346;2023-09-19T11:11:41;21.40;99.90
25914;DHT22;13718;50.922;5.346;2023-09-19T11:16:39;21.60;99.90
25914;DHT22;13718;50.922;5.346;2023-09-19T11:19:05;21.60;99.90
25914;DHT22;13718;50.922;5.346;2023-09-19T11:26:43;21.50;99.90
25914;DHT22;13718;50.922;5.346;2023-09-19T11:29:27;21.60;99.90
25914;DHT22;13718;50.922;5.346;2023-09-19T11:31:54;21.80;99.90
25914;DHT22;13718;50.922;5.346;2023-09-19T11:39:40;21.60;99.90
25914;DHT22;13718;50.922;5.346;2023-09-19T11:48:23;21.30;99.90
25914;DHT22;13718;50.922;5.346;2023-09-19T11:50:52;21.50;99.90
25914;DHT22;13718;50.922;5.346;2023-09-19T11:53:18;21.70;99.90
25914;DHT22;13718;50.922;5.346;2023-09-19T11:55:45;21.70;99.90
25914;DHT22;13718;50.922;5.346;2023-09-19T11:58:17;21.80;99.90
25914;DHT22;13718;50.922;5.346;2023-09-19T12:00:45;22.00;99.90
25914;DHT22;13718;50.922;5.346;2023-09-19T12:03:12;22.10;99.90
25914;DHT22;13718;50.922;5.346;2023-09-19T12:05:40;22.30;99.90
25914;DHT22;13718;50.922;5.346;2023-09-19T12:08:07;22.40;99.90
25914;DHT22;13718;50.922;5.346;2023-09-19T12:10:48;22.40;99.90
25914;DHT22;13718;50.922;5.346;2023-09-19T12:13:18;22.40;99.90
25914;DHT22;13718;50.922;5.346;2023-09-19T12:15:44;22.30;99.90
25914;DHT22;13718;50.922;5.346;2023-09-19T12:18:32;22.40;99.90
25914;DHT22;13718;50.922;5.346;2023-09-19T12:20:58;22.60;99.90
25914;DHT22;13718;50.922;5.346;2023-09-19T12:23:25;22.50;99.90
25914;DHT22;13718;50.922;5.346;2023-09-19T12:25:52;22.60;99.90
25914;DHT22;13718;50.922;5.346;2023-09-19T12:28:19;22.60;99.90
25914;DHT22;13718;50.922;5.346;2023-09-19T12:30:48;22.60;99.90
25914;DHT22;13718;50.922;5.346;2023-09-19T12:33:19;22.50;99.90
25914;DHT22;13718;50.922;5.346;2023-09-19T12:35:45;22.60;99.90
25914;DHT22;13718;50.922;5.346;2023-09-19T12:38:25;22.80;99.90
25914;DHT22;13718;50.922;5.346;2023-09-19T12:40:56;22.60;99.90
25914;DHT22;13718;50.922;5.346;2023-09-19T12:43:24;22.60;99.90
25914;DHT22;13718;50.922;5.346;2023-09-19T12:45:50;22.50;99.90
25914;DHT22;13718;50.922;5.346;2023-09-19T12:48:22;22.60;99.90
25914;DHT22;13718;50.922;5.346;2023-09-19T12:53:27;22.90;99.90
25914;DHT22;13718;50.922;5.346;2023-09-19T12:55:59;23.10;99.90
25914;DHT22;13718;50.922;5.346;2023-09-19T12:58:25;23.10;99.90
25914;DHT22;13718;50.922;5.346;2023-09-19T13:00:51;23.00;99.90
25914;DHT22;13718;50.922;5.346;2023-09-19T13:05:58;22.80;99.90
25914;DHT22;13718;50.922;5.346;2023-09-19T13:11:14;22.70;99.90
25914;DHT22;13718;50.922;5.346;2023-09-19T13:16:10;23.10;99.90
25914;DHT22;13718;50.922;5.346;2023-09-19T13:18:48;23.20;99.90
25914;DHT22;13718;50.922;5.346;2023-09-19T13:21:17;23.20;99.90
25914;DHT22;13718;50.922;5.346;2023-09-19T13:23:53;22.90;99.90
25914;DHT22;13718;50.922;5.346;2023-09-19T13:26:27;22.80;99.90
25914;DHT22;13718;50.922;5.346;2023-09-19T13:28:54;22.80;99.90
25914;DHT22;13718;50.922;5.346;2023-09-19T13:31:19;22.80;99.90
25914;DHT22;13718;50.922;5.346;2023-09-19T13:33:48;22.90;99.90
25914;DHT22;13718;50.922;5.346;2023-09-19T13:36:15;23.10;99.90
25914;DHT22;13718;50.922;5.346;2023-09-19T13:38:41;23.20;99.90
25914;DHT22;13718;50.922;5.346;2023-09-19T13:41:10;23.40;99.90
25914;DHT22;13718;50.922;5.346;2023-09-19T13:43:37;23.30;99.90
25914;DHT22;13718;50.922;5.346;2023-09-19T13:46:04;23.30;99.90
25914;DHT22;13718;50.922;5.346;2023-09-19T13:48:30;23.20;99.90
25914;DHT22;13718;50.922;5.346;2023-09-19T13:50:56;23.30;99.90
25914;DHT22;13718;50.922;5.346;2023-09-19T13:53:22;23.20;99.90
25914;DHT22;13718;50.922;5.346;2023-09-19T13:55:47;23.20;99.90
25914;DHT22;13718;50.922;5.346;2023-09-19T13:58:16;23.20;99.90
25914;DHT22;13718;50.922;5.346;2023-09-19T14:00:42;23.20;99.90
25914;DHT22;13718;50.922;5.346;2023-09-19T14:03:08;23.20;99.90
25914;DHT22;13718;50.922;5.346;2023-09-19T14:05:33;23.10;99.90
25914;DHT22;13718;50.922;5.346;2023-09-19T14:07:59;23.20;99.90
25914;DHT22;13718;50.922;5.346;2023-09-19T14:10:25;23.00;99.90
25914;DHT22;13718;50.922;5.346;2023-09-19T14:12:56;22.90;99.90
25914;DHT22;13718;50.922;5.346;2023-09-19T14:15:23;23.00;99.90
25914;DHT22;13718;50.922;5.346;2023-09-19T14:17:55;22.80;99.90
25914;DHT22;13718;50.922;5.346;2023-09-19T14:20:21;22.70;99.90
25914;DHT22;13718;50.922;5.346;2023-09-19T14:22:48;22.60;99.90
25914;DHT22;13718;50.922;5.346;2023-09-19T14:25:13;22.40;99.90
25914;DHT22;13718;50.922;5.346;2023-09-19T14:27:39;22.40;99.90
25914;DHT22;13718;50.922;5.346;2023-09-19T14:30:06;22.30;99.90
25914;DHT22;13718;50.922;5.346;2023-09-19T14:32:32;22.00;99.90
25914;DHT22;13718;50.922;5.346;2023-09-19T14:34:57;21.90;99.90
25914;DHT22;13718;50.922;5.346;2023-09-19T14:37:23;21.70;99.90
25914;DHT22;13718;50.922;5.346;2023-09-19T14:39:48;21.80;99.90
25914;DHT22;13718;50.922;5.346;2023-09-19T14:42:14;21.70;99.90
25914;DHT22;13718;50.922;5.346;2023-09-19T14:44:43;21.80;99.90
25914;DHT22;13718;50.922;5.346;2023-09-19T14:47:09;22.10;99.90
25914;DHT22;13718;50.922;5.346;2023-09-19T14:49:35;22.30;99.90
25914;DHT22;13718;50.922;5.346;2023-09-19T14:52:03;22.50;99.90
25914;DHT22;13718;50.922;5.346;2023-09-19T14:54:30;22.60;99.90
25914;DHT22;13718;50.922;5.346;2023-09-19T14:56:56;22.80;99.90
25914;DHT22;13718;50.922;5.346;2023-09-19T14:59:30;22.80;99.90
25914;DHT22;13718;50.922;5.346;2023-09-19T15:01:57;22.80;99.90
25914;DHT22;13718;50.922;5.346;2023-09-19T15:04:23;22.90;99.90
25914;DHT22;13718;50.922;5.346;2023-09-19T15:06:49;22.80;99.90
25914;DHT22;13718;50.922;5.346;2023-09-19T15:09:15;22.70;99.90
25914;DHT22;13718;50.922;5.346;2023-09-19T15:11:41;22.70;99.90
25914;DHT22;13718;50.922;5.346;2023-09-19T15:14:06;22.60;99.90
25914;DHT22;13718;50.922;5.346;2023-09-19T15:16:32;22.60;99.90
25914;DHT22;13718;50.922;5.346;2023-09-19T15:18:58;22.60;99.90
25914;DHT22;13718;50.922;5.346;2023-09-19T15:21:23;22.40;99.90
25914;DHT22;13718;50.922;5.346;2023-09-19T15:23:49;22.50;99.90
25914;DHT22;13718;50.922;5.346;2023-09-19T15:26:15;22.60;99.90
25914;DHT22;13718;50.922;5.346;2023-09-19T15:28:47;22.50;99.90
25914;DHT22;13718;50.922;5.346;2023-09-19T15:31:13;22.40;99.90
25914;DHT22;13718;50.922;5.346;2023-09-19T15:33:40;22.40;99.90
25914;DHT22;13718;50.922;5.346;2023-09-19T15:36:06;22.30;99.90
25914;DHT22;13718;50.922;5.346;2023-09-19T15:39:03;22.40;99.90
25914;DHT22;13718;50.922;5.346;2023-09-19T15:41:33;22.10;99.90
25914;DHT22;13718;50.922;5.346;2023-09-19T15:44:01;22.00;99.90
25914;DHT22;13718;50.922;5.346;2023-09-19T15:46:30;22.00;99.90
25914;DHT22;13718;50.922;5.346;2023-09-19T15:48:57;22.00;99.90
25914;DHT22;13718;50.922;5.346;2023-09-19T15:51:23;22.10;99.90
25914;DHT22;13718;50.922;5.346;2023-09-19T15:53:50;21.80;99.90
25914;DHT22;13718;50.922;5.346;2023-09-19T15:56:16;21.80;99.90
25914;DHT22;13718;50.922;5.346;2023-09-19T15:58:46;21.90;99.90
25914;DHT22;13718;50.922;5.346;2023-09-19T16:01:12;21.90;99.90
25914;DHT22;13718;50.922;5.346;2023-09-19T16:03:43;21.80;99.90
25914;DHT22;13718;50.922;5.346;2023-09-19T16:06:10;21.70;99.90
25914;DHT22;13718;50.922;5.346;2023-09-19T16:08:47;21.60;99.90
25914;DHT22;13718;50.922;5.346;2023-09-19T16:11:13;21.50;99.90
25914;DHT22;13718;50.922;5.346;2023-09-19T16:13:40;21.50;99.90
25914;DHT22;13718;50.922;5.346;2023-09-19T16:16:12;21.40;99.90
25914;DHT22;13718;50.922;5.346;2023-09-19T16:18:40;21.20;99.90
25914;DHT22;13718;50.922;5.346;2023-09-19T16:21:08;21.30;99.90
25914;DHT22;13718;50.922;5.346;2023-09-19T16:23:34;21.40;99.90